Time;durP1;ratioP1;P1;durP2;ratioP2;P2;SDS_P1;SDS_P2;PMS_P1;PMS_P2;Temp;Humidity;BMP_temperature;BMP_pressure;BME280_temperature;BME280_humidity;BME280_pressure;Samples;Min_cycle;Max_cycle;Signal;HPM_P1;HPM_P2
2022/02/06 00:00:53;;;;;;;11.10;1.95;;;;;;;5.23;100.00;97630.00;4905995;29;20076;-79
2022/02/06 00:03:21;;;;;;;7.93;1.77;;;;;;;5.13;100.00;97640.81;4908494;29;20116;-80
2022/02/06 00:05:49;;;;;;;10.95;1.92;;;;;;;5.12;100.00;97618.53;4883075;29;20085;-80
2022/02/06 00:08:15;;;;;;;8.13;1.98;;;;;;;5.20;100.00;97617.94;4896141;29;20056;-79
2022/02/06 00:10:42;;;;;;;5.05;1.75;;;;;;;5.07;100.00;97602.50;4896925;29;20064;-80
2022/02/06 00:13:09;;;;;;;11.82;2.38;;;;;;;5.25;100.00;97617.09;4896971;29;20048;-81
2022/02/06 00:15:36;;;;;;;6.40;1.63;;;;;;;5.08;100.00;97588.00;4897289;29;20057;-78
2022/02/06 00:18:02;;;;;;;10.43;1.60;;;;;;;5.21;100.00;97578.50;4897773;29;20059;-81
2022/02/06 00:20:33;;;;;;;9.05;1.70;;;;;;;5.21;100.00;97576.63;4882070;29;20060;-79
2022/02/06 00:23:04;;;;;;;7.28;2.22;;;;;;;5.19;100.00;97572.63;4897925;29;20056;-82
2022/02/06 00:31:12;;;;;;;6.70;1.95;;;;;;;5.31;100.00;97563.13;4900303;29;20131;-81
2022/02/06 00:41:34;;;;;;;;;;;;;;;5.31;100.00;97540.84;4901381;29;20052;-82
2022/02/06 00:43:55;;;;;;;7.53;1.50;;;;;;;5.33;100.00;97541.34;4898528;29;20266;-82
2022/02/06 00:46:23;;;;;;;6.00;1.40;;;;;;;5.30;100.00;97541.91;4900037;29;20053;-83
2022/02/06 00:48:55;;;;;;;4.93;1.60;;;;;;;5.21;100.00;97527.53;4899795;29;20529;-81
2022/02/06 00:54:21;;;;;;;8.43;1.80;;;;;;;5.35;100.00;97533.81;4878406;29;20454;-80
2022/02/06 00:56:48;;;;;;;6.07;1.52;;;;;;;5.40;100.00;97547.97;4898796;29;20524;-81
2022/02/06 00:59:15;;;;;;;10.15;1.88;;;;;;;5.55;100.00;97534.41;4900313;29;20462;-81
2022/02/06 01:01:43;;;;;;;13.05;2.42;;;;;;;5.48;100.00;97542.00;4884548;29;20064;-78
2022/02/06 01:04:10;;;;;;;9.15;1.88;;;;;;;5.49;100.00;97546.28;4885412;29;20668;-83
2022/02/06 01:06:37;;;;;;;6.30;1.60;;;;;;;5.53;100.00;97516.97;4904310;29;20057;-80
2022/02/06 01:09:05;;;;;;;14.95;1.85;;;;;;;5.47;100.00;97540.38;4903091;29;20386;-82
2022/02/06 01:11:34;;;;;;;10.50;1.80;;;;;;;5.43;100.00;97522.47;4883995;29;20053;-81
2022/02/06 01:16:38;;;;;;;7.35;1.80;;;;;;;5.38;100.00;97517.13;4895808;29;20080;-79
2022/02/06 01:19:20;;;;;;;11.27;2.20;;;;;;;5.26;100.00;97509.50;4896922;29;20053;-82
2022/02/06 01:24:24;;;;;;;9.10;2.28;;;;;;;5.40;100.00;97515.78;4903016;29;20086;-81
2022/02/06 01:26:58;;;;;;;12.80;2.30;;;;;;;5.35;100.00;97507.78;4900548;29;20108;-82
2022/02/06 01:32:05;;;;;;;13.68;2.40;;;;;;;5.35;100.00;97489.00;4900220;29;20403;-83
2022/02/06 01:34:42;;;;;;;13.07;2.30;;;;;;;5.27;100.00;97503.03;4883293;29;20486;-83
2022/02/06 01:37:26;;;;;;;12.50;2.17;;;;;;;5.19;100.00;97492.91;4884573;29;20076;-81
2022/02/06 01:40:11;;;;;;;7.30;2.00;;;;;;;5.08;100.00;97487.94;4884854;29;20052;-82
2022/02/06 01:42:46;;;;;;;11.13;1.88;;;;;;;5.26;100.00;97473.78;4903922;29;20052;-79
2022/02/06 02:15:31;;;;;;;7.97;1.98;;;;;;;5.78;100.00;97414.63;4903560;29;20407;-81
2022/02/06 02:18:17;;;;;;;12.77;1.80;;;;;;;5.87;100.00;97415.63;4902531;29;20056;-81
2022/02/06 02:26:29;;;;;;;13.02;1.70;;;;;;;5.79;100.00;97393.94;4902331;29;20076;-81
2022/02/06 02:45:25;;;;;;;8.45;2.10;;;;;;;5.93;100.00;97360.75;4904616;29;20059;-80
2022/02/06 02:48:00;;;;;;;4.07;1.58;;;;;;;5.90;100.00;97358.63;4886841;29;20067;-80
2022/02/06 02:50:27;;;;;;;8.80;1.95;;;;;;;5.84;100.00;97349.00;4905837;29;20482;-81
2022/02/06 02:53:12;;;;;;;6.75;1.55;;;;;;;5.88;100.00;97351.94;4905171;29;20136;-81
2022/02/06 03:01:16;;;;;;;7.97;1.73;;;;;;;6.05;100.00;97323.47;4902957;29;20056;-81
2022/02/06 03:03:42;;;;;;;16.63;1.67;;;;;;;6.07;100.00;97320.47;4886694;29;20383;-81
2022/02/06 03:06:09;;;;;;;12.50;2.17;;;;;;;6.15;100.00;97311.75;4881368;29;20083;-81
2022/02/06 03:08:38;;;;;;;9.02;1.83;;;;;;;6.14;100.00;97318.22;4898012;29;20053;-82
2022/02/06 03:11:08;;;;;;;5.78;1.60;;;;;;;6.00;100.00;97303.94;4902567;29;20053;-80
2022/02/06 03:16:29;;;;;;;8.63;1.50;;;;;;;6.12;100.00;97318.50;4906374;29;20068;-80
2022/02/06 03:18:59;;;;;;;11.75;1.85;;;;;;;5.99;100.00;97297.75;4903826;29;20083;-83
2022/02/06 03:21:30;;;;;;;8.85;1.70;;;;;;;5.95;100.00;97317.47;4881938;29;20329;-80
2022/02/06 03:24:07;;;;;;;5.55;1.80;;;;;;;6.27;100.00;97272.56;4882076;29;20116;-81
2022/02/06 03:26:34;;;;;;;8.93;1.85;;;;;;;6.26;100.00;97278.25;4882424;29;20124;-81
2022/02/06 03:29:00;;;;;;;9.23;1.85;;;;;;;5.99;100.00;97291.59;4900048;29;20060;-83
2022/02/06 03:31:27;;;;;;;7.32;1.38;;;;;;;6.07;100.00;97270.22;4902370;29;20109;-82
2022/02/06 03:33:53;;;;;;;10.52;1.73;;;;;;;6.07;100.00;97251.41;4903831;29;20056;-84
2022/02/06 03:36:21;;;;;;;9.10;1.83;;;;;;;6.06;100.00;97255.22;4885877;29;20056;-82
2022/02/06 03:38:51;;;;;;;9.73;1.40;;;;;;;6.10;100.00;97272.34;4903034;29;20056;-79
2022/02/06 03:41:18;;;;;;;7.22;1.73;;;;;;;6.06;100.00;97249.03;4903251;29;20056;-82
2022/02/06 03:43:57;;;;;;;5.05;1.40;;;;;;;6.11;100.00;97248.94;4885302;29;20071;-79
2022/02/06 03:46:29;;;;;;;6.68;1.90;;;;;;;6.21;100.00;97236.13;4898816;29;20076;-81
2022/02/06 03:49:07;;;;;;;;;;;;;;;;;;;;;
2022/02/06 03:51:34;;;;;;;10.45;2.17;;;;;;;6.22;100.00;97226.97;4902762;29;20069;-80
2022/02/06 03:54:02;;;;;;;6.32;1.65;;;;;;;6.07;100.00;97232.63;4883540;29;20048;-79
2022/02/06 03:56:31;;;;;;;10.30;1.73;;;;;;;6.13;100.00;97225.25;4901008;29;20081;-79
2022/02/06 03:58:59;;;;;;;8.25;2.08;;;;;;;6.03;100.00;97212.81;4903588;29;20123;-80
2022/02/06 04:01:26;;;;;;;9.75;1.60;;;;;;;6.06;100.00;97217.59;4903967;29;20056;-82
2022/02/06 04:03:52;;;;;;;14.43;2.15;;;;;;;5.97;100.00;97222.03;4904630;29;20060;-81
2022/02/06 04:06:19;;;;;;;11.43;1.75;;;;;;;5.90;100.00;97216.25;4908102;29;20053;-79
2022/02/06 04:08:47;;;;;;;10.48;1.95;;;;;;;5.99;100.00;97198.34;4889625;29;20085;-81
2022/02/06 04:11:18;;;;;;;8.90;1.52;;;;;;;5.99;100.00;97195.66;4891579;29;20554;-79
2022/02/06 04:14:08;;;;;;;11.18;1.60;;;;;;;5.98;100.00;97175.28;4906345;29;20183;-79
2022/02/06 04:16:49;;;;;;;9.23;1.80;;;;;;;5.96;100.00;97195.47;4904636;29;20063;-78
2022/02/06 04:19:25;;;;;;;8.10;1.85;;;;;;;5.90;100.00;97175.97;4902751;29;20077;-79
2022/02/06 04:21:56;;;;;;;7.70;1.48;;;;;;;6.00;100.00;97194.59;4884451;29;20053;-79
2022/02/06 04:24:24;;;;;;;10.98;2.00;;;;;;;5.86;100.00;97191.06;4914796;29;20052;-81
2022/02/06 04:26:53;;;;;;;7.97;1.52;;;;;;;5.85;100.00;97170.69;4901142;29;20056;-82
2022/02/06 04:29:20;;;;;;;9.05;1.58;;;;;;;5.94;100.00;97170.78;4902954;29;20059;-80
2022/02/06 04:31:49;;;;;;;6.25;1.60;;;;;;;5.85;100.00;97151.88;4901281;29;20056;-78
2022/02/06 04:34:21;;;;;;;7.35;1.48;;;;;;;5.77;100.00;97157.91;4904508;29;20079;-80
2022/02/06 04:40:05;;;;;;;8.98;1.80;;;;;;;5.68;100.00;97166.94;4897371;29;20100;-82
2022/02/06 05:13:30;;;;;;;4.75;1.20;;;;;;;6.10;100.00;97091.50;4896062;29;20132;-79
2022/02/06 05:18:34;;;;;;;5.55;1.20;;;;;;;6.13;100.00;97096.28;4900720;29;20107;-82
2022/02/06 05:29:29;;;;;;;5.95;1.15;;;;;;;6.09;100.00;97079.94;4881200;29;20117;-79
2022/02/06 05:32:16;;;;;;;3.45;0.70;;;;;;;6.11;100.00;97058.97;4903366;29;20083;-79
2022/02/06 05:34:43;;;;;;;2.65;0.80;;;;;;;6.17;100.00;97073.88;4911223;29;20482;-80
2022/02/06 05:37:13;;;;;;;3.15;0.80;;;;;;;6.09;100.00;97052.31;4905025;29;20071;-82
2022/02/06 05:39:40;;;;;;;5.70;1.00;;;;;;;6.05;100.00;97022.53;4902611;29;20084;-80
2022/02/06 05:42:07;;;;;;;2.60;1.00;;;;;;;6.22;100.00;97056.84;4902606;29;20073;-81
2022/02/06 05:44:36;;;;;;;4.40;0.93;;;;;;;6.16;100.00;97050.81;4902604;29;20505;-79
2022/02/06 05:47:03;;;;;;;2.40;0.75;;;;;;;6.19;100.00;97063.63;4902339;29;20152;-82
2022/02/06 05:49:30;;;;;;;2.72;0.90;;;;;;;6.18;100.00;97053.97;4902068;29;20056;-79
2022/02/06 05:51:58;;;;;;;3.80;0.75;;;;;;;6.14;100.00;97046.81;4902359;29;20139;-80
2022/02/06 05:54:25;;;;;;;3.65;0.70;;;;;;;6.12;100.00;97059.75;4907363;29;20028;-80
2022/02/06 05:56:51;;;;;;;5.03;0.60;;;;;;;6.23;100.00;97053.88;4900415;29;20112;-80
2022/02/06 05:59:18;;;;;;;2.60;0.75;;;;;;;6.18;100.00;97062.03;4898245;29;20116;-80
2022/02/06 06:01:44;;;;;;;4.18;0.70;;;;;;;6.18;100.00;97053.19;4891361;29;20112;-78
2022/02/06 06:04:11;;;;;;;2.42;0.70;;;;;;;6.21;100.00;97052.59;4899075;29;20057;-80
2022/02/06 06:06:37;;;;;;;4.50;0.52;;;;;;;6.07;100.00;97028.41;4882750;29;20446;-80
2022/02/06 06:09:05;;;;;;;6.32;0.80;;;;;;;6.14;100.00;97036.09;4882900;29;20056;-81
2022/02/06 06:11:32;;;;;;;4.07;0.80;;;;;;;6.06;100.00;97039.47;4900099;29;20060;-81
2022/02/06 06:13:59;;;;;;;4.10;0.82;;;;;;;6.08;100.00;97037.28;4900476;29;20281;-82
2022/02/06 06:16:27;;;;;;;2.30;0.60;;;;;;;5.94;100.00;97050.69;4906601;29;20081;-82
2022/02/06 06:18:53;;;;;;;6.45;0.85;;;;;;;5.97;100.00;97047.44;4903441;29;20056;-79
2022/02/06 06:21:23;;;;;;;5.75;0.80;;;;;;;5.92;100.00;97050.22;4901619;29;20390;-81
2022/02/06 06:23:52;;;;;;;2.45;0.70;;;;;;;5.88;100.00;97043.06;4901875;29;20057;-81
2022/02/06 06:26:21;;;;;;;3.70;0.68;;;;;;;5.95;100.00;97041.56;4907180;29;20061;-80
2022/02/06 06:28:48;;;;;;;2.28;0.60;;;;;;;5.92;100.00;97026.03;4904620;29;20132;-79
2022/02/06 06:31:14;;;;;;;5.65;0.90;;;;;;;6.03;100.00;97038.19;4902644;29;20522;-80
2022/02/06 06:33:41;;;;;;;1.98;0.90;;;;;;;6.01;100.00;97036.88;4904019;29;20057;-79
2022/02/06 06:36:07;;;;;;;3.20;0.98;;;;;;;6.04;100.00;97053.19;4907612;29;20051;-79
2022/02/06 06:38:35;;;;;;;4.90;1.17;;;;;;;5.97;100.00;97049.31;4882224;29;20520;-80
2022/02/06 06:41:03;;;;;;;3.40;0.88;;;;;;;5.91;100.00;97034.41;4881487;29;20114;-81
2022/02/06 06:43:30;;;;;;;3.78;1.00;;;;;;;5.83;100.00;97006.34;4882738;29;20048;-79
2022/02/06 06:45:58;;;;;;;3.25;1.00;;;;;;;5.94;100.00;97010.41;4899886;29;20055;-80
2022/02/06 06:48:27;;;;;;;4.20;1.35;;;;;;;5.83;100.00;97027.00;4883644;29;20057;-81
2022/02/06 06:50:56;;;;;;;5.85;1.13;;;;;;;5.80;100.00;97014.97;4903493;29;20155;-82
2022/02/06 06:53:23;;;;;;;3.35;0.80;;;;;;;5.71;100.00;97015.97;4883544;29;20554;-81
2022/02/06 06:56:01;;;;;;;5.68;1.17;;;;;;;5.60;100.00;96985.84;4887189;29;20049;-82
2022/02/06 06:58:32;;;;;;;5.13;1.00;;;;;;;5.83;100.00;97021.66;4900074;29;20052;-82
2022/02/06 07:03:32;;;;;;;3.92;1.25;;;;;;;5.79;100.00;97021.44;4899588;29;20052;-80
2022/02/06 07:06:03;;;;;;;6.07;1.60;;;;;;;5.87;100.00;96999.28;4899882;29;20235;-83
2022/02/06 07:08:30;;;;;;;7.38;1.73;;;;;;;5.85;100.00;97022.97;4899896;29;20640;-81
2022/02/06 07:10:57;;;;;;;5.47;1.63;;;;;;;5.87;100.00;97001.16;4898436;29;20048;-81
2022/02/06 07:13:23;;;;;;;4.57;1.30;;;;;;;5.91;100.00;96991.44;4898661;29;20055;-83
2022/02/06 07:15:52;;;;;;;5.45;1.40;;;;;;;5.94;100.00;96980.88;4883844;29;20059;-82
2022/02/06 07:18:19;;;;;;;6.03;1.67;;;;;;;6.02;100.00;96969.41;4892201;29;20055;-81
2022/02/06 07:20:48;;;;;;;11.50;1.42;;;;;;;6.11;100.00;96962.25;4904838;29;20060;-83
2022/02/06 07:23:16;;;;;;;4.40;1.30;;;;;;;6.15;100.00;96998.16;4902196;29;20113;-81
2022/02/06 07:25:50;;;;;;;4.47;1.23;;;;;;;6.19;100.00;96979.53;4885605;29;20152;-83
2022/02/06 07:28:18;;;;;;;6.78;1.40;;;;;;;6.03;100.00;96960.28;4901053;29;20041;-82
2022/02/06 07:30:46;;;;;;;6.25;1.35;;;;;;;6.12;100.00;96971.88;4891044;29;20056;-81
2022/02/06 07:33:22;;;;;;;6.53;1.30;;;;;;;6.06;100.00;96924.75;4881529;29;20060;-80
2022/02/06 07:35:50;;;;;;;7.82;2.05;;;;;;;6.13;100.00;96946.59;4883194;29;20561;-79
2022/02/06 07:38:17;;;;;;;7.30;1.33;;;;;;;6.21;100.00;96956.63;4895819;29;20076;-81
2022/02/06 07:40:44;;;;;;;7.38;1.40;;;;;;;6.25;100.00;96928.03;4897891;29;20216;-81
2022/02/06 07:43:11;;;;;;;4.28;1.30;;;;;;;6.16;100.00;96923.72;4898681;29;20053;-83
2022/02/06 07:45:39;;;;;;;10.55;1.40;;;;;;;6.39;100.00;96932.59;4880037;29;20675;-81
2022/02/06 07:48:09;;;;;;;5.85;1.17;;;;;;;6.50;100.00;96932.06;4880757;29;20060;-79
2022/02/06 07:50:36;;;;;;;7.68;1.23;;;;;;;6.49;100.00;96938.50;4899877;29;20135;-80
2022/02/06 07:53:02;;;;;;;6.32;1.02;;;;;;;6.47;100.00;96924.59;4883024;29;20060;-79
2022/02/06 07:55:30;;;;;;;6.13;1.20;;;;;;;6.46;100.00;96928.38;4896745;29;20057;-79
2022/02/06 07:57:58;;;;;;;9.57;2.95;;;;;;;6.58;100.00;96925.91;4899789;29;20143;-80
2022/02/06 08:00:25;;;;;;;7.93;1.08;;;;;;;6.57;100.00;96902.03;4904130;29;20067;-83
2022/02/06 08:02:54;;;;;;;5.32;1.20;;;;;;;6.69;100.00;96919.19;4876566;29;20076;-83
2022/02/06 08:05:20;;;;;;;7.25;1.00;;;;;;;6.61;100.00;96914.56;4883053;29;20072;-80
2022/02/06 08:07:49;;;;;;;3.20;0.90;;;;;;;6.68;100.00;96874.59;4898432;29;20056;-80
2022/02/06 08:10:16;;;;;;;3.78;1.05;;;;;;;6.82;100.00;96904.06;4903245;29;20112;-83
2022/02/06 08:12:54;;;;;;;3.50;0.93;;;;;;;6.74;100.00;96911.00;4883797;29;20112;-82
2022/02/06 08:15:20;;;;;;;5.18;1.15;;;;;;;6.66;100.00;96871.38;4886397;29;20057;-84
2022/02/06 08:17:47;;;;;;;8.15;1.13;;;;;;;6.83;100.00;96913.75;4901032;29;20053;-82
2022/02/06 08:20:16;;;;;;;5.80;1.13;;;;;;;6.82;100.00;96896.00;4899816;29;20056;-83
2022/02/06 08:22:44;;;;;;;4.95;0.82;;;;;;;6.69;100.00;96907.63;4882660;29;20079;-82
2022/02/06 08:25:12;;;;;;;3.95;1.10;;;;;;;6.70;100.00;96888.53;4890103;29;20056;-83
2022/02/06 08:27:40;;;;;;;5.00;1.00;;;;;;;6.62;100.00;96899.22;4894563;29;20425;-82
2022/02/06 08:30:07;;;;;;;6.25;1.10;;;;;;;6.66;100.00;96887.53;4893736;29;20053;-81
2022/02/06 08:32:34;;;;;;;4.55;1.00;;;;;;;6.64;100.00;96886.25;4892246;29;20048;-81
2022/02/06 08:35:01;;;;;;;4.53;1.10;;;;;;;6.66;100.00;96908.25;4894139;29;20081;-81
2022/02/06 08:37:27;;;;;;;3.40;1.50;;;;;;;6.61;100.00;96906.47;4895779;29;20111;-81
2022/02/06 08:39:54;;;;;;;2.80;1.02;;;;;;;6.59;100.00;96891.75;4895166;29;20081;-79
2022/02/06 08:42:21;;;;;;;7.00;1.23;;;;;;;6.63;100.00;96880.06;4886915;29;20048;-81
2022/02/06 08:44:53;;;;;;;9.18;1.38;;;;;;;6.50;100.00;96880.97;4891783;29;20103;-79
2022/02/06 08:47:20;;;;;;;6.07;1.10;;;;;;;6.62;100.00;96896.53;4893955;29;20124;-81
2022/02/06 08:49:47;;;;;;;4.93;1.02;;;;;;;6.52;100.00;96881.44;4878509;29;20057;-80
2022/02/06 08:52:14;;;;;;;3.88;1.15;;;;;;;6.55;100.00;96864.72;4881373;29;20044;-80
2022/02/06 08:54:42;;;;;;;6.95;1.20;;;;;;;6.61;100.00;96879.59;4901181;29;20064;-81
2022/02/06 08:57:21;;;;;;;8.23;1.10;;;;;;;6.72;100.00;96866.69;4895489;29;20049;-82
2022/02/06 08:59:48;;;;;;;4.07;1.10;;;;;;;6.92;100.00;96889.59;4882019;29;20056;-79
2022/02/06 09:02:15;;;;;;;6.38;0.90;;;;;;;6.81;100.00;96883.69;4894473;29;20056;-81
2022/02/06 09:04:44;;;;;;;3.33;1.02;;;;;;;7.07;100.00;96879.19;4893956;29;20485;-83
2022/02/06 09:07:12;;;;;;;3.63;1.00;;;;;;;7.00;100.00;96864.59;4897871;29;20053;-77
2022/02/06 09:09:44;;;;;;;6.18;1.02;;;;;;;6.95;100.00;96844.00;4897811;29;20060;-81
2022/02/06 09:12:18;;;;;;;4.45;1.20;;;;;;;7.07;100.00;96865.72;4902491;29;20820;-83
2022/02/06 09:14:49;;;;;;;9.48;1.17;;;;;;;7.00;100.00;96843.88;4874155;29;20067;-80
2022/02/06 09:17:16;;;;;;;4.97;1.15;;;;;;;7.30;100.00;96850.31;4888432;29;20049;-81
2022/02/06 09:19:43;;;;;;;3.70;0.98;;;;;;;7.21;100.00;96838.72;4901335;29;20076;-80
2022/02/06 09:22:10;;;;;;;4.72;0.90;;;;;;;7.12;100.00;96852.16;4904946;29;20056;-80
2022/02/06 09:24:37;;;;;;;6.70;1.50;;;;;;;7.21;100.00;96844.91;4892249;29;20075;-79
2022/02/06 09:27:05;;;;;;;7.07;1.60;;;;;;;7.33;100.00;96845.06;4900106;29;20202;-80
2022/02/06 09:29:32;;;;;;;3.33;1.10;;;;;;;7.32;100.00;96853.47;4911180;29;20057;-79
2022/02/06 09:37:34;;;;;;;4.28;0.80;;;;;;;7.62;100.00;96833.72;4912988;29;20056;-79
2022/02/06 09:40:02;;;;;;;9.00;1.40;;;;;;;7.87;100.00;96824.09;4880260;29;20712;-80
2022/02/06 09:42:30;;;;;;;2.65;0.70;;;;;;;7.91;100.00;96830.44;4903867;29;20052;-79
2022/02/06 09:44:58;;;;;;;2.25;0.80;;;;;;;7.49;100.00;96826.59;4903595;29;20143;-80
2022/02/06 09:47:35;;;;;;;2.42;0.90;;;;;;;7.88;100.00;96826.47;4880474;29;20116;-81
2022/02/06 09:50:06;;;;;;;4.30;0.77;;;;;;;8.18;100.00;96813.94;4896573;29;20057;-82
2022/02/06 09:52:39;;;;;;;4.28;0.95;;;;;;;8.22;100.00;96822.16;4885571;29;20056;-81
2022/02/06 09:55:15;;;;;;;3.35;0.93;;;;;;;8.08;100.00;96798.06;4901940;29;20062;-81
2022/02/06 09:57:59;;;;;;;;;;;;;;;;;;;;;
2022/02/06 10:00:37;;;;;;;5.93;0.95;;;;;;;7.98;100.00;96798.41;4902355;29;20409;-82
2022/02/06 10:03:06;;;;;;;4.18;0.90;;;;;;;7.82;100.00;96789.25;4886853;29;20056;-79
2022/02/06 10:05:35;;;;;;;7.15;1.05;;;;;;;8.01;100.00;96787.00;4886114;29;20048;-82
2022/02/06 10:08:13;;;;;;;2.90;0.80;;;;;;;7.97;100.00;96770.69;4883413;29;20756;-80
2022/02/06 10:10:58;;;;;;;3.80;1.00;;;;;;;8.54;100.00;96773.13;4883202;29;20064;-81
2022/02/06 10:13:25;;;;;;;4.07;0.82;;;;;;;8.47;100.00;96776.31;4871959;29;20670;-83
2022/02/06 10:15:52;;;;;;;3.97;1.00;;;;;;;8.41;100.00;96763.31;4899723;29;20045;-80
2022/02/06 10:18:18;;;;;;;3.58;1.15;;;;;;;7.92;100.00;96753.88;4904000;29;20052;-81
2022/02/06 10:20:47;;;;;;;4.22;1.00;;;;;;;7.97;100.00;96757.22;4886470;29;20120;-81
2022/02/06 10:23:28;;;;;;;3.20;1.00;;;;;;;8.06;100.00;96757.97;4903960;29;20064;-81
2022/02/06 10:26:05;;;;;;;3.63;0.82;;;;;;;7.99;100.00;96754.19;4904919;29;20632;-82
2022/02/06 10:31:05;;;;;;;4.05;1.00;;;;;;;8.42;100.00;96746.00;4902397;29;20116;-82
2022/02/06 10:33:49;;;;;;;3.45;1.17;;;;;;;8.33;100.00;96721.78;4905903;29;20112;-81
2022/02/06 10:36:18;;;;;;;6.90;0.98;;;;;;;8.83;100.00;96711.09;4904728;29;20077;-80
2022/02/06 10:38:46;;;;;;;4.20;0.82;;;;;;;8.39;100.00;96715.09;4906880;29;20085;-83
2022/02/06 10:41:17;;;;;;;5.68;1.10;;;;;;;8.74;100.00;96719.25;4903582;29;20053;-81
2022/02/06 10:44:01;;;;;;;3.33;0.90;;;;;;;8.94;100.00;96708.81;4904610;29;20095;-83
2022/02/06 10:46:31;;;;;;;6.35;1.10;;;;;;;8.62;100.00;96694.84;4904955;29;20438;-81
2022/02/06 10:49:09;;;;;;;4.03;0.82;;;;;;;8.96;100.00;96691.16;4886391;29;20061;-82
2022/02/06 10:51:43;;;;;;;3.50;0.90;;;;;;;9.24;100.00;96686.84;4895991;29;20052;-81
2022/02/06 10:54:24;;;;;;;3.63;1.27;;;;;;;8.89;100.00;96696.28;4897062;29;20139;-81
2022/02/06 10:57:02;;;;;;;4.68;1.20;;;;;;;8.66;100.00;96673.41;4898467;29;20100;-81
2022/02/06 10:59:48;;;;;;;3.50;0.85;;;;;;;8.51;100.00;96693.66;4898677;29;20136;-81
2022/02/06 11:02:24;;;;;;;4.85;1.00;;;;;;;8.04;100.00;96676.66;4881083;29;20080;-81
2022/02/06 11:05:19;;;;;;;6.82;1.17;;;;;;;7.95;100.00;96659.69;4883925;29;20073;-81
2022/02/06 11:08:01;;;;;;;6.50;0.97;;;;;;;7.90;100.00;96657.19;4875968;29;20053;-80
2022/02/06 11:10:30;;;;;;;4.63;1.08;;;;;;;7.67;100.00;96634.25;4881767;29;20305;-81
2022/02/06 11:13:05;;;;;;;2.53;0.85;;;;;;;7.41;100.00;96634.31;4879522;29;20056;-80
2022/02/06 11:15:39;;;;;;;5.30;1.50;;;;;;;7.36;100.00;96644.44;4881822;29;20504;-84
2022/02/06 11:18:16;;;;;;;4.93;1.30;;;;;;;7.35;100.00;96635.59;4863960;29;20181;-82
2022/02/06 11:20:57;;;;;;;2.63;0.73;;;;;;;7.15;100.00;96614.69;4883202;29;20514;-83
2022/02/06 11:23:45;;;;;;;5.03;1.60;;;;;;;7.16;100.00;96621.66;4883211;29;20085;-82
2022/02/06 11:26:44;;;;;;;6.22;1.20;;;;;;;7.31;100.00;96623.06;4888346;29;20049;-78
2022/02/06 11:29:13;;;;;;;7.32;1.00;;;;;;;7.36;100.00;96617.50;4872665;29;20728;-78
2022/02/06 11:31:43;;;;;;;3.75;1.10;;;;;;;7.31;100.00;96615.78;4888916;29;20049;-81
2022/02/06 11:34:13;;;;;;;2.45;0.80;;;;;;;7.29;100.00;96601.06;4887694;29;20078;-81
2022/02/06 11:45:27;;;;;;;4.72;0.95;;;;;;;7.07;100.00;96593.94;4907984;29;20053;-81
2022/02/06 11:48:03;;;;;;;4.38;1.00;;;;;;;7.13;100.00;96576.53;4901149;29;20056;-81
2022/02/06 11:50:32;;;;;;;2.42;0.90;;;;;;;7.14;100.00;96580.03;4885623;29;20053;-82
2022/02/06 11:53:03;;;;;;;5.22;1.05;;;;;;;7.15;100.00;96576.25;4887354;29;20056;-84
2022/02/06 11:55:34;;;;;;;3.63;0.90;;;;;;;7.12;100.00;96571.50;4905838;29;20052;-82
2022/02/06 11:58:19;;;;;;;3.28;0.77;;;;;;;7.03;100.00;96565.31;4896849;29;20055;-83
2022/02/06 12:01:06;;;;;;;5.18;1.33;;;;;;;7.12;100.00;96569.59;4900339;29;20060;-83
2022/02/06 12:04:05;;;;;;;4.18;0.80;;;;;;;7.17;100.00;96563.25;4892148;29;20060;-81
2022/02/06 12:06:47;;;;;;;3.88;0.82;;;;;;;7.20;100.00;96552.63;4892422;29;20068;-82
2022/02/06 12:09:29;;;;;;;3.15;0.70;;;;;;;7.14;100.00;96548.53;4894758;29;20132;-84
2022/02/06 12:12:05;;;;;;;2.70;0.70;;;;;;;7.33;100.00;96535.50;4898228;29;20082;-82
2022/02/06 12:14:40;;;;;;;2.35;0.77;;;;;;;7.30;100.00;96530.75;4899051;29;20128;-81
2022/02/06 12:17:43;;;;;;;1.20;0.60;;;;;;;7.18;100.00;96517.16;4887396;29;20048;-81
2022/02/06 12:20:15;;;;;;;3.72;0.70;;;;;;;7.10;100.00;96507.22;4901835;29;20108;-85
2022/02/06 12:22:43;;;;;;;3.50;0.60;;;;;;;7.14;100.00;96492.03;4882548;29;20044;-83
2022/02/06 12:25:22;;;;;;;1.52;0.65;;;;;;;6.98;100.00;96490.13;4907274;29;20052;-81
2022/02/06 12:28:18;;;;;;;2.13;0.70;;;;;;;7.11;100.00;96483.78;4902227;29;20052;-82
2022/02/06 12:30:47;;;;;;;1.38;0.52;;;;;;;7.02;100.00;96477.66;4885322;29;20052;-84
2022/02/06 12:33:36;;;;;;;1.70;0.43;;;;;;;7.03;100.00;96477.31;4902607;29;20060;-82
2022/02/06 12:38:48;;;;;;;3.67;0.70;;;;;;;6.88;100.00;96443.66;4902240;29;20060;-83
2022/02/06 12:41:23;;;;;;;1.10;0.60;;;;;;;7.16;100.00;96435.97;4906330;29;20397;-79
2022/02/06 12:43:56;;;;;;;2.10;0.68;;;;;;;7.08;100.00;96417.16;4903044;29;20123;-83
2022/02/06 12:46:25;;;;;;;2.22;0.52;;;;;;;7.13;100.00;96407.00;4900809;29;20091;-84
2022/02/06 12:48:59;;;;;;;1.25;0.43;;;;;;;7.34;100.00;96434.00;4901579;29;20061;-81
2022/02/06 12:51:28;;;;;;;0.75;0.40;;;;;;;7.24;100.00;96402.84;4899923;29;20144;-79
2022/02/06 12:54:03;;;;;;;1.48;0.40;;;;;;;7.30;100.00;96415.00;4880753;29;20081;-82
2022/02/06 12:56:31;;;;;;;1.02;0.52;;;;;;;7.31;100.00;96402.34;4885455;29;20116;-82
2022/02/06 12:58:59;;;;;;;0.88;0.40;;;;;;;7.53;100.00;96383.25;4878097;29;20899;-83
2022/02/06 13:01:37;;;;;;;4.22;0.60;;;;;;;7.64;100.00;96391.75;4879312;29;20064;-82
2022/02/06 13:04:05;;;;;;;0.85;0.40;;;;;;;7.51;100.00;96348.56;4895350;29;20124;-83
2022/02/06 13:06:43;;;;;;;1.20;0.35;;;;;;;7.25;100.00;96364.06;4878079;29;20176;-80
2022/02/06 13:09:18;;;;;;;1.65;0.40;;;;;;;7.53;100.00;96349.03;4893484;29;20148;-81
2022/02/06 13:11:48;;;;;;;3.28;0.52;;;;;;;7.52;100.00;96352.03;4899187;29;20089;-83
2022/02/06 13:14:28;;;;;;;1.40;0.40;;;;;;;7.45;100.00;96320.25;4897122;29;20072;-82
2022/02/06 13:22:55;;;;;;;4.85;0.77;;;;;;;7.67;100.00;96296.81;4897100;29;20061;-80
2022/02/06 13:39:08;;;;;;;1.50;0.50;;;;;;;7.72;100.00;96242.72;4886254;29;20072;-83
2022/02/06 13:41:35;;;;;;;1.63;0.47;;;;;;;7.65;100.00;96220.94;4884998;29;20097;-81
2022/02/06 13:44:04;;;;;;;0.90;0.40;;;;;;;7.71;100.00;96227.72;4903819;29;20585;-85
2022/02/06 13:46:34;;;;;;;1.35;0.50;;;;;;;7.67;100.00;96219.50;4883547;29;20060;-83
2022/02/06 13:49:02;;;;;;;1.67;0.40;;;;;;;7.72;100.00;96203.13;4899719;29;20056;-81
2022/02/06 13:51:41;;;;;;;1.00;0.60;;;;;;;7.77;100.00;96223.72;4899295;29;20056;-84
2022/02/06 13:54:08;;;;;;;1.50;0.40;;;;;;;7.75;100.00;96169.34;4902863;29;20096;-82
2022/02/06 13:56:43;;;;;;;0.85;0.40;;;;;;;7.64;100.00;96182.44;4887277;29;20087;-82
2022/02/06 13:59:18;;;;;;;0.50;0.30;;;;;;;7.76;100.00;96176.34;4898753;29;20064;-84
2022/02/06 14:01:55;;;;;;;1.25;0.52;;;;;;;7.86;100.00;96165.94;4898436;29;20111;-80
2022/02/06 14:04:28;;;;;;;0.60;0.30;;;;;;;7.82;100.00;96170.38;4904493;29;20060;-80
2022/02/06 14:07:21;;;;;;;0.85;0.30;;;;;;;7.90;100.00;96156.03;4917870;29;20063;-82
2022/02/06 14:10:09;;;;;;;0.70;0.30;;;;;;;7.72;100.00;96135.00;4919178;29;20112;-83
2022/02/06 14:12:47;;;;;;;0.80;0.20;;;;;;;7.63;100.00;96120.84;4901368;29;20049;-82
2022/02/06 14:15:26;;;;;;;0.60;0.20;;;;;;;7.69;100.00;96136.47;4909524;29;20053;-83
2022/02/06 14:18:00;;;;;;;1.10;0.40;;;;;;;7.70;100.00;96123.78;4908941;29;20265;-79
2022/02/06 14:20:28;;;;;;;1.90;0.40;;;;;;;7.62;100.00;96113.88;4909203;29;20546;-83
2022/02/06 14:23:04;;;;;;;0.50;0.30;;;;;;;7.66;100.00;96095.97;4910155;29;20056;-82
2022/02/06 14:25:45;;;;;;;1.50;0.60;;;;;;;7.67;100.00;96114.47;4909041;29;20129;-83
2022/02/06 14:28:24;;;;;;;0.68;0.30;;;;;;;7.49;100.00;96105.00;4901901;29;20056;-82
2022/02/06 14:30:52;;;;;;;0.82;0.30;;;;;;;7.67;100.00;96087.53;4899859;29;20048;-80
2022/02/06 14:33:21;;;;;;;0.65;0.40;;;;;;;7.37;100.00;96081.53;4884049;29;20052;-82
2022/02/06 14:36:01;;;;;;;2.47;0.30;;;;;;;7.31;100.00;96093.59;4886479;29;20068;-80
2022/02/06 14:38:41;;;;;;;;;;;;;;;;;;;;;
2022/02/06 14:41:21;;;;;;;;;;;;;;;;;;;;;
2022/02/06 14:43:35;;;;;;;0.43;0.30;;;;;;;7.01;100.00;96054.47;4905709;29;20064;-82
2022/02/06 14:46:10;;;;;;;1.52;0.30;;;;;;;7.00;100.00;96063.66;4905395;29;20056;-81
2022/02/06 14:48:37;;;;;;;0.50;0.30;;;;;;;7.11;100.00;96053.28;4901091;29;20053;-80
2022/02/06 14:51:08;;;;;;;0.82;0.30;;;;;;;6.87;100.00;96043.19;4888514;29;20052;-81